createdAt,value
2022-09-12T16:14:47.431Z,98283.00
2022-09-12T16:17:14.025Z,98281.78
2022-09-12T16:19:40.623Z,98285.63
2022-09-12T16:22:07.188Z,98285.41
2022-09-12T16:24:33.844Z,98283.09
2022-09-12T16:27:01.500Z,98290.44
2022-09-12T16:29:28.184Z,98289.41
2022-09-12T16:31:54.737Z,98284.19
2022-09-12T16:34:21.310Z,98282.06
2022-09-12T16:36:47.985Z,98282.94
2022-09-12T16:39:14.699Z,98273.56
2022-09-12T16:41:42.735Z,98274.72
2022-09-12T16:44:10.247Z,98276.09
2022-09-12T16:46:36.925Z,98271.59
2022-09-12T16:49:06.122Z,98269.47
2022-09-12T16:51:37.673Z,98271.75
2022-09-12T16:54:04.390Z,98281.22
2022-09-12T16:56:30.993Z,98274.00
2022-09-12T16:58:57.573Z,98281.31
2022-09-12T17:01:25.690Z,98278.41
2022-09-12T17:03:54.258Z,98274.25
2022-09-12T17:06:22.015Z,98269.56
2022-09-12T17:08:51.013Z,98271.28
2022-09-12T17:11:21.141Z,98277.47
2022-09-12T17:14:04.317Z,98279.66
2022-09-12T17:16:32.140Z,98279.13
2022-09-12T17:18:58.727Z,98273.22
2022-09-12T17:21:25.703Z,98272.00
2022-09-12T17:23:52.372Z,98276.81
2022-09-12T17:26:18.944Z,98279.59
2022-09-12T17:28:48.158Z,98281.25
2022-09-12T17:31:15.150Z,98283.44
2022-09-12T17:33:42.070Z,98281.31
2022-09-12T17:36:13.270Z,98276.28
2022-09-12T17:38:39.927Z,98277.19
2022-09-12T17:41:08.658Z,98280.44
2022-09-12T17:43:37.942Z,98280.47
2022-09-12T17:46:05.328Z,98279.44
2022-09-12T17:48:32.488Z,98278.66
2022-09-12T17:50:59.388Z,98282.19
2022-09-12T17:53:26.267Z,98273.38
2022-09-12T17:55:54.415Z,98284.91
2022-09-12T17:58:21.066Z,98283.34
2022-09-12T18:01:02.923Z,98280.16
2022-09-12T18:03:29.600Z,98286.84
2022-09-12T18:05:56.500Z,98287.19
2022-09-12T18:08:24.256Z,98281.34
2022-09-12T18:10:52.332Z,98292.94
2022-09-12T18:13:19.966Z,98296.97
2022-09-12T18:15:46.595Z,98287.56
2022-09-12T18:18:13.264Z,98295.09
2022-09-12T18:20:39.907Z,98296.16
2022-09-12T18:23:06.701Z,98295.91
2022-09-12T18:25:33.403Z,98297.81
2022-09-12T18:28:00.499Z,98295.47
2022-09-12T18:30:27.210Z,98295.72
2022-09-12T18:32:53.921Z,98300.56
2022-09-12T18:35:20.533Z,98302.97
2022-09-12T18:37:47.169Z,98300.00
2022-09-12T18:40:13.826Z,98302.19
2022-09-12T18:42:40.456Z,98305.66
2022-09-12T18:45:07.629Z,98307.00
2022-09-12T18:47:34.176Z,98306.47
2022-09-12T18:50:01.341Z,98306.75
2022-09-12T18:52:28.244Z,98304.59
2022-09-12T18:54:54.869Z,98299.78
2022-09-12T18:57:21.432Z,98299.78
2022-09-12T18:59:48.278Z,98296.06
2022-09-12T19:02:16.398Z,98300.03
2022-09-12T19:04:43.863Z,98301.41
2022-09-12T19:07:10.729Z,98299.97
2022-09-12T19:09:37.433Z,98300.00
2022-09-12T19:12:04.214Z,98293.84
2022-09-12T19:14:30.932Z,98299.72
2022-09-12T19:16:57.607Z,98304.78
2022-09-12T19:19:24.196Z,98298.31
2022-09-12T19:21:50.805Z,98297.00
2022-09-12T19:24:17.563Z,98299.16
2022-09-12T19:26:44.772Z,98298.09
2022-09-12T19:29:12.263Z,98307.38
2022-09-12T19:31:39.894Z,98300.66
2022-09-12T19:34:07.836Z,98306.56
2022-09-12T19:36:50.402Z,98309.53
2022-09-12T19:39:19.574Z,98310.03
2022-09-12T19:41:46.981Z,98303.38
2022-09-12T19:44:14.353Z,98302.78
2022-09-12T19:46:40.990Z,98303.06
2022-09-12T19:49:07.888Z,98303.84
2022-09-12T19:51:34.568Z,98307.06
2022-09-12T19:54:01.140Z,98302.25
2022-09-12T19:56:27.719Z,98304.13
2022-09-12T19:58:56.619Z,98303.56
2022-09-12T20:01:28.351Z,98306.97
2022-09-12T20:03:56.281Z,98305.69
2022-09-12T20:06:23.252Z,98300.06
2022-09-12T20:08:50.079Z,98288.88
2022-09-12T20:11:19.118Z,98296.88
2022-09-12T20:13:46.146Z,98298.50
2022-09-12T20:16:22.170Z,98293.16
2022-09-12T20:18:54.668Z,98305.41
2022-09-12T20:21:25.403Z,98301.94
2022-09-12T20:23:52.265Z,98293.16
2022-09-12T20:26:20.386Z,98298.22
2022-09-12T20:28:48.631Z,98290.94
2022-09-12T20:31:16.557Z,98285.91
2022-09-12T20:33:45.804Z,98289.09
2022-09-12T20:36:16.808Z,98284.78
2022-09-12T20:38:49.616Z,98279.66
2022-09-12T20:41:17.097Z,98279.69
2022-09-12T20:43:43.651Z,98277.81
2022-09-12T20:46:11.508Z,98281.59
2022-09-12T20:48:39.214Z,98280.25
2022-09-12T20:51:06.774Z,98282.38
2022-09-12T20:53:35.222Z,98283.41
2022-09-12T20:56:03.262Z,98287.13
2022-09-12T20:58:29.961Z,98282.22
2022-09-12T21:00:57.213Z,98284.34
2022-09-12T21:03:23.763Z,98288.34
2022-09-12T21:05:50.351Z,98286.97
2022-09-12T21:08:16.996Z,98284.31
2022-09-12T21:10:44.808Z,98289.13
2022-09-12T21:13:12.908Z,98290.75
2022-09-12T21:15:40.713Z,98288.88
2022-09-12T21:18:07.683Z,98285.41
2022-09-12T21:20:34.783Z,98280.63
2022-09-12T21:23:01.419Z,98275.81
2022-09-12T21:25:29.181Z,98284.13
2022-09-12T21:27:55.802Z,98286.00
2022-09-12T21:30:22.513Z,98283.34
2022-09-12T21:32:49.262Z,98285.75
2022-09-12T21:35:16.133Z,98281.63
2022-09-12T21:37:42.815Z,98287.41
2022-09-12T21:40:09.838Z,98280.41
2022-09-12T21:42:36.451Z,98283.50
2022-09-12T21:45:03.062Z,98286.34
2022-09-12T21:47:29.666Z,98280.94
2022-09-12T21:49:56.374Z,98281.69
2022-09-12T21:52:23.022Z,98283.66
2022-09-12T21:54:49.632Z,98279.69
2022-09-12T21:57:16.200Z,98278.06
2022-09-12T21:59:42.782Z,98279.41
2022-09-12T22:02:10.888Z,98279.03
2022-09-12T22:04:37.540Z,98279.66
2022-09-12T22:07:05.465Z,98274.19
2022-09-12T22:09:33.937Z,98275.34
2022-09-12T22:12:02.269Z,98281.38
2022-09-12T22:14:29.487Z,98285.16
2022-09-12T22:16:56.834Z,98281.19
2022-09-12T22:19:23.721Z,98282.00
2022-09-12T22:22:06.041Z,98284.91
2022-09-12T22:24:32.617Z,98289.94
2022-09-12T22:27:02.375Z,98287.44
2022-09-12T22:29:29.014Z,98281.78
2022-09-12T22:31:55.743Z,98279.06
2022-09-12T22:34:22.623Z,98274.00
2022-09-12T22:36:49.182Z,98273.94
2022-09-12T22:39:15.823Z,98267.25
2022-09-12T22:41:42.413Z,98264.59
2022-09-12T22:44:10.754Z,98271.25
2022-09-12T22:46:38.401Z,98269.59
2022-09-12T22:49:06.651Z,98264.19
2022-09-12T22:51:33.934Z,98263.63
2022-09-12T22:54:00.514Z,98264.13
2022-09-12T22:56:27.584Z,98263.22
2022-09-12T22:58:54.514Z,98262.91
2022-09-12T23:01:21.372Z,98265.81
2022-09-12T23:03:48.048Z,98263.16
2022-09-12T23:06:14.724Z,98266.28
2022-09-12T23:08:41.470Z,98273.41
2022-09-12T23:11:11.341Z,98272.31
2022-09-12T23:13:38.676Z,98264.59
2022-09-12T23:16:07.119Z,98270.97
2022-09-12T23:18:36.090Z,98259.78
2022-09-12T23:21:06.841Z,98266.41
2022-09-12T23:23:33.952Z,98261.00
2022-09-12T23:26:03.503Z,98263.00
2022-09-12T23:28:30.283Z,98266.56
2022-09-12T23:30:56.964Z,98266.06
2022-09-12T23:33:23.696Z,98274.38
2022-09-12T23:35:50.305Z,98278.34
2022-09-12T23:38:16.896Z,98272.41
2022-09-12T23:40:43.425Z,98267.91
2022-09-12T23:43:09.982Z,98278.63
2022-09-12T23:45:36.518Z,98265.31
2022-09-12T23:48:03.268Z,98264.19
2022-09-12T23:50:29.833Z,98273.88
2022-09-12T23:52:56.393Z,98261.59
2022-09-12T23:55:23.717Z,98263.16
2022-09-12T23:57:50.272Z,98266.06
